Yakubu Gowon Airport

DNJO · Plateau, Nigeria

Storia di METAR DNJO · Yakubu Gowon Airport

Di seguito sono riportati i METAR degli ultimi giorni. Seleziona un anno per sfogliare i METAR più vecchi, dall'anno 2007 in poi.

9 dicembre 2022

Tempo Codice Tempo metereologico Temp. Vista Base nuvolosa Vento METAR/SPECI
17:00
V
26 °C 10 km+ - 100° 100° 9 kt METAR DNJO 091600Z 10009KT CAVOK 26/01 Q1019
15:00
V
27 °C 10 km+ - 100° 100° 9 kt METAR DNJO 091400Z 10009KT CAVOK 27/02 Q1019
14:00
V
26 °C 10 km+ - 110° 110° 13 kt METAR DNJO 091300Z 11013KT CAVOK 26/M01 Q1019
11:00
V
23 °C 10 km+ - 110° 110° 14 kt METAR DNJO 091000Z 11014KT CAVOK 23/09 Q1021
09:00
V
20 °C 10 km+ - 110° 110° 14 kt METAR DNJO 090800Z 11014KT CAVOK 20/02 Q1022
06:00
V
14 °C 10 km+ - 100° 100° 6 kt METAR DNJO 090500Z 10006KT CAVOK 14/06 Q1017
05:00
V
15 °C 10 km+ - 090° 090° 5 kt METAR DNJO 090400Z 09005KT CAVOK 15/07 Q1017

8 dicembre 2022

Tempo Codice Tempo metereologico Temp. Vista Base nuvolosa Vento METAR/SPECI
20:00
V
21 °C 10 km+ - 090° 090° 5 kt METAR DNJO 081900Z 09005KT CAVOK 21/05 Q1020
17:00
V
25 °C 10 km+ - 120° 120° 13 kt METAR DNJO 081600Z 12013KT CAVOK 25/03 Q1018
15:00
V
27 °C 10 km+ - 110° 110° 2 kt METAR DNJO 081400Z 11002KT CAVOK 27/03 Q1018
12:00
V
26 °C 10 km+ - 110° 110° 16 kt METAR DNJO 081100Z 11016KT CAVOK 26/02 Q1019
11:00
V
25 °C 10 km+ - 110° 110° 17 kt METAR DNJO 081000Z 11017KT CAVOK 25/01 Q1020
05:00
V
14 °C 10 km+ - 100° 100° 8 kt METAR DNJO 080400Z 10008KT CAVOK 14/02 Q1018

7 dicembre 2022

Tempo Codice Tempo metereologico Temp. Vista Base nuvolosa Vento METAR/SPECI
23:00
V
19 °C 10 km+ - Var 000° 0 kt METAR DNJO 072200Z 00000KT CAVOK 19/01 Q1020
18:00
V
24 °C 10 km+ - 100° 100° 6 kt METAR DNJO 071700Z 10006KT CAVOK 24/04 Q1018
17:00
V
27 °C 10 km+ - 090° 090° 6 kt METAR DNJO 071600Z 09006KT CAVOK 27/01 Q1017
15:00
V
27 °C 9 km - 110° 110° 18 kt METAR DNJO 071400Z 11018KT 9000 NSC 27/03 Q1017
14:00
V
27 °C 9 km - 120° 120° 16 kt METAR DNJO 071300Z 12016KT 9000 NSC 27/03 Q1017

Noi e le terze parti seguiamo il tuo comportamento su internet con i cookie. Se continui, riteniamo che tu sia d'accordo con la nostra Politica sui cookie.